sensor_id;sensor_type;location;lat;lon;timestamp;temperature;humidity
62259;DHT22;48241;48.824;10.102;2023-04-25T00:00:35;10.50;89.20
62259;DHT22;48241;48.824;10.102;2023-04-25T00:03:01;11.20;89.50
62259;DHT22;48241;48.824;10.102;2023-04-25T00:05:27;11.40;89.00
62259;DHT22;48241;48.824;10.102;2023-04-25T00:07:53;10.10;89.00
62259;DHT22;48241;48.824;10.102;2023-04-25T00:10:20;11.50;89.30
62259;DHT22;48241;48.824;10.102;2023-04-25T00:12:46;9.80;89.40
62259;DHT22;48241;48.824;10.102;2023-04-25T00:15:12;10.80;90.70
62259;DHT22;48241;48.824;10.102;2023-04-25T00:17:37;10.70;90.00
62259;DHT22;48241;48.824;10.102;2023-04-25T00:20:06;10.50;90.50
62259;DHT22;48241;48.824;10.102;2023-04-25T00:22:35;9.50;90.10
62259;DHT22;48241;48.824;10.102;2023-04-25T00:25:05;11.20;91.00
62259;DHT22;48241;48.824;10.102;2023-04-25T00:27:31;9.90;89.20
62259;DHT22;48241;48.824;10.102;2023-04-25T00:29:57;10.80;89.60
62259;DHT22;48241;48.824;10.102;2023-04-25T00:32:23;10.90;89.50
62259;DHT22;48241;48.824;10.102;2023-04-25T00:34:48;10.70;89.90
62259;DHT22;48241;48.824;10.102;2023-04-25T00:37:14;11.20;89.60
62259;DHT22;48241;48.824;10.102;2023-04-25T00:39:40;11.90;90.10
62259;DHT22;48241;48.824;10.102;2023-04-25T00:42:05;11.00;87.00
62259;DHT22;48241;48.824;10.102;2023-04-25T00:44:31;11.90;86.10
62259;DHT22;48241;48.824;10.102;2023-04-25T00:46:57;11.40;86.80
62259;DHT22;48241;48.824;10.102;2023-04-25T00:49:23;11.30;87.10
62259;DHT22;48241;48.824;10.102;2023-04-25T00:51:49;11.90;89.30
62259;DHT22;48241;48.824;10.102;2023-04-25T00:54:15;11.50;89.40
62259;DHT22;48241;48.824;10.102;2023-04-25T00:56:41;11.20;88.20
62259;DHT22;48241;48.824;10.102;2023-04-25T00:59:08;11.50;90.60
62259;DHT22;48241;48.824;10.102;2023-04-25T01:01:35;10.50;90.60
62259;DHT22;48241;48.824;10.102;2023-04-25T01:04:01;11.20;89.10
62259;DHT22;48241;48.824;10.102;2023-04-25T01:06:27;11.00;88.30
62259;DHT22;48241;48.824;10.102;2023-04-25T01:08:53;11.00;88.00
62259;DHT22;48241;48.824;10.102;2023-04-25T01:11:18;11.80;88.40
62259;DHT22;48241;48.824;10.102;2023-04-25T01:13:45;11.50;87.90
62259;DHT22;48241;48.824;10.102;2023-04-25T01:16:10;11.50;89.10
62259;DHT22;48241;48.824;10.102;2023-04-25T01:18:38;11.80;88.60
62259;DHT22;48241;48.824;10.102;2023-04-25T01:21:09;11.80;89.00
62259;DHT22;48241;48.824;10.102;2023-04-25T01:23:36;11.50;88.30
62259;DHT22;48241;48.824;10.102;2023-04-25T01:26:02;11.40;89.00
62259;DHT22;48241;48.824;10.102;2023-04-25T01:28:29;11.70;89.80
62259;DHT22;48241;48.824;10.102;2023-04-25T01:30:55;10.20;89.00
62259;DHT22;48241;48.824;10.102;2023-04-25T01:33:21;10.70;88.90
62259;DHT22;48241;48.824;10.102;2023-04-25T01:35:47;10.90;88.80
62259;DHT22;48241;48.824;10.102;2023-04-25T01:38:13;10.90;89.80
62259;DHT22;48241;48.824;10.102;2023-04-25T01:40:40;10.60;89.40
62259;DHT22;48241;48.824;10.102;2023-04-25T01:43:06;11.20;90.40
62259;DHT22;48241;48.824;10.102;2023-04-25T01:45:33;10.90;90.20
62259;DHT22;48241;48.824;10.102;2023-04-25T01:47:59;9.70;90.40
62259;DHT22;48241;48.824;10.102;2023-04-25T01:50:25;11.20;90.50
62259;DHT22;48241;48.824;10.102;2023-04-25T01:52:50;10.40;90.60
62259;DHT22;48241;48.824;10.102;2023-04-25T01:55:16;9.90;90.50
62259;DHT22;48241;48.824;10.102;2023-04-25T01:57:42;10.30;90.40
62259;DHT22;48241;48.824;10.102;2023-04-25T02:00:08;10.40;90.70
62259;DHT22;48241;48.824;10.102;2023-04-25T02:02:34;9.10;91.30
62259;DHT22;48241;48.824;10.102;2023-04-25T02:05:00;10.10;91.70
62259;DHT22;48241;48.824;10.102;2023-04-25T02:07:26;10.00;91.60
62259;DHT22;48241;48.824;10.102;2023-04-25T02:09:52;9.80;91.90
62259;DHT22;48241;48.824;10.102;2023-04-25T02:12:18;10.60;92.20
62259;DHT22;48241;48.824;10.102;2023-04-25T02:14:43;9.00;92.10
62259;DHT22;48241;48.824;10.102;2023-04-25T02:17:09;8.80;91.80
62259;DHT22;48241;48.824;10.102;2023-04-25T02:19:35;9.40;92.50
62259;DHT22;48241;48.824;10.102;2023-04-25T02:22:01;9.20;92.20
62259;DHT22;48241;48.824;10.102;2023-04-25T02:24:26;9.10;92.40
62259;DHT22;48241;48.824;10.102;2023-04-25T02:26:53;9.40;93.20
62259;DHT22;48241;48.824;10.102;2023-04-25T02:29:20;9.30;92.10
62259;DHT22;48241;48.824;10.102;2023-04-25T02:31:46;9.50;91.80
62259;DHT22;48241;48.824;10.102;2023-04-25T02:34:11;9.60;91.50
62259;DHT22;48241;48.824;10.102;2023-04-25T02:36:37;9.60;91.70
62259;DHT22;48241;48.824;10.102;2023-04-25T02:39:03;10.50;91.60
62259;DHT22;48241;48.824;10.102;2023-04-25T02:41:28;10.20;91.70
62259;DHT22;48241;48.824;10.102;2023-04-25T02:43:54;9.80;91.30
62259;DHT22;48241;48.824;10.102;2023-04-25T02:46:20;10.20;91.10
62259;DHT22;48241;48.824;10.102;2023-04-25T02:48:46;10.00;90.50
62259;DHT22;48241;48.824;10.102;2023-04-25T02:51:11;10.20;90.60
62259;DHT22;48241;48.824;10.102;2023-04-25T02:53:37;10.40;90.20
62259;DHT22;48241;48.824;10.102;2023-04-25T02:56:03;10.10;90.50
62259;DHT22;48241;48.824;10.102;2023-04-25T02:58:29;10.30;89.30
62259;DHT22;48241;48.824;10.102;2023-04-25T03:00:54;10.70;89.60
62259;DHT22;48241;48.824;10.102;2023-04-25T03:03:20;10.20;89.60
62259;DHT22;48241;48.824;10.102;2023-04-25T03:05:48;10.50;90.00
62259;DHT22;48241;48.824;10.102;2023-04-25T03:08:14;11.50;90.20
62259;DHT22;48241;48.824;10.102;2023-04-25T03:10:40;11.10;89.70
62259;DHT22;48241;48.824;10.102;2023-04-25T03:13:05;10.60;89.70
62259;DHT22;48241;48.824;10.102;2023-04-25T03:15:31;10.70;89.60
62259;DHT22;48241;48.824;10.102;2023-04-25T03:17:56;10.80;89.60
62259;DHT22;48241;48.824;10.102;2023-04-25T03:20:22;10.80;89.50
62259;DHT22;48241;48.824;10.102;2023-04-25T03:22:48;10.30;88.70
62259;DHT22;48241;48.824;10.102;2023-04-25T03:25:13;10.00;89.70
62259;DHT22;48241;48.824;10.102;2023-04-25T03:27:39;9.80;89.90
62259;DHT22;48241;48.824;10.102;2023-04-25T03:30:05;10.40;90.30
62259;DHT22;48241;48.824;10.102;2023-04-25T03:32:31;10.00;90.10
62259;DHT22;48241;48.824;10.102;2023-04-25T03:34:57;9.90;90.20
62259;DHT22;48241;48.824;10.102;2023-04-25T03:37:23;10.30;89.90
62259;DHT22;48241;48.824;10.102;2023-04-25T03:39:48;10.20;90.20
62259;DHT22;48241;48.824;10.102;2023-04-25T03:42:14;9.90;90.10
62259;DHT22;48241;48.824;10.102;2023-04-25T03:44:39;10.30;90.60
62259;DHT22;48241;48.824;10.102;2023-04-25T03:47:05;10.80;91.10
62259;DHT22;48241;48.824;10.102;2023-04-25T03:49:32;9.40;90.90
62259;DHT22;48241;48.824;10.102;2023-04-25T03:51:57;9.70;90.80
62259;DHT22;48241;48.824;10.102;2023-04-25T03:54:23;9.70;91.30
62259;DHT22;48241;48.824;10.102;2023-04-25T03:56:48;9.40;91.30
62259;DHT22;48241;48.824;10.102;2023-04-25T03:59:14;10.30;91.10
62259;DHT22;48241;48.824;10.102;2023-04-25T04:01:40;9.70;90.90
62259;DHT22;48241;48.824;10.102;2023-04-25T04:04:05;9.70;90.90
62259;DHT22;48241;48.824;10.102;2023-04-25T04:06:31;9.70;90.90
62259;DHT22;48241;48.824;10.102;2023-04-25T04:08:56;10.70;91.90
62259;DHT22;48241;48.824;10.102;2023-04-25T04:11:22;9.80;90.80
62259;DHT22;48241;48.824;10.102;2023-04-25T04:13:47;9.60;91.10
62259;DHT22;48241;48.824;10.102;2023-04-25T04:16:13;9.80;91.20
62259;DHT22;48241;48.824;10.102;2023-04-25T04:18:38;9.70;90.70
62259;DHT22;48241;48.824;10.102;2023-04-25T04:21:04;9.50;91.00
62259;DHT22;48241;48.824;10.102;2023-04-25T04:23:30;9.50;91.20
62259;DHT22;48241;48.824;10.102;2023-04-25T04:25:56;10.50;90.90
62259;DHT22;48241;48.824;10.102;2023-04-25T04:28:22;10.90;90.90
62259;DHT22;48241;48.824;10.102;2023-04-25T04:30:48;10.90;90.80
62259;DHT22;48241;48.824;10.102;2023-04-25T04:33:16;10.90;91.40
62259;DHT22;48241;48.824;10.102;2023-04-25T04:35:44;9.80;91.50
62259;DHT22;48241;48.824;10.102;2023-04-25T04:38:10;10.10;91.20
62259;DHT22;48241;48.824;10.102;2023-04-25T04:40:37;10.80;91.20
62259;DHT22;48241;48.824;10.102;2023-04-25T04:43:03;9.40;90.80
62259;DHT22;48241;48.824;10.102;2023-04-25T04:45:28;9.20;91.00
62259;DHT22;48241;48.824;10.102;2023-04-25T04:47:54;9.50;91.10
62259;DHT22;48241;48.824;10.102;2023-04-25T04:50:20;9.40;90.90
62259;DHT22;48241;48.824;10.102;2023-04-25T04:52:46;9.40;90.80
62259;DHT22;48241;48.824;10.102;2023-04-25T04:55:11;9.50;90.60
62259;DHT22;48241;48.824;10.102;2023-04-25T04:57:37;9.70;90.40
62259;DHT22;48241;48.824;10.102;2023-04-25T05:00:04;11.00;90.50
62259;DHT22;48241;48.824;10.102;2023-04-25T05:02:33;9.80;90.20
62259;DHT22;48241;48.824;10.102;2023-04-25T05:04:58;9.80;90.80
62259;DHT22;48241;48.824;10.102;2023-04-25T05:07:24;10.50;90.60
62259;DHT22;48241;48.824;10.102;2023-04-25T05:09:50;10.00;90.60
62259;DHT22;48241;48.824;10.102;2023-04-25T05:12:15;10.70;90.60
62259;DHT22;48241;48.824;10.102;2023-04-25T05:14:41;10.30;90.20
62259;DHT22;48241;48.824;10.102;2023-04-25T05:17:06;10.30;89.50
62259;DHT22;48241;48.824;10.102;2023-04-25T05:19:34;10.50;89.00
62259;DHT22;48241;48.824;10.102;2023-04-25T05:21:59;11.20;89.70
62259;DHT22;48241;48.824;10.102;2023-04-25T05:24:25;11.00;88.90
62259;DHT22;48241;48.824;10.102;2023-04-25T05:26:50;10.60;89.40
62259;DHT22;48241;48.824;10.102;2023-04-25T05:29:16;11.10;89.20
62259;DHT22;48241;48.824;10.102;2023-04-25T05:31:42;11.00;89.00
62259;DHT22;48241;48.824;10.102;2023-04-25T05:34:07;11.20;88.60
62259;DHT22;48241;48.824;10.102;2023-04-25T05:36:33;11.00;87.40
62259;DHT22;48241;48.824;10.102;2023-04-25T05:38:58;11.20;87.60
62259;DHT22;48241;48.824;10.102;2023-04-25T05:41:24;12.20;88.00
62259;DHT22;48241;48.824;10.102;2023-04-25T05:43:49;11.40;85.30
62259;DHT22;48241;48.824;10.102;2023-04-25T05:46:15;11.90;84.80
62259;DHT22;48241;48.824;10.102;2023-04-25T05:48:44;11.50;85.00
62259;DHT22;48241;48.824;10.102;2023-04-25T05:51:09;11.50;85.10
62259;DHT22;48241;48.824;10.102;2023-04-25T05:53:35;11.30;86.10
62259;DHT22;48241;48.824;10.102;2023-04-25T05:56:01;11.50;86.10
62259;DHT22;48241;48.824;10.102;2023-04-25T05:58:27;11.50;85.90
62259;DHT22;48241;48.824;10.102;2023-04-25T06:00:52;12.10;86.80
62259;DHT22;48241;48.824;10.102;2023-04-25T06:03:18;11.30;85.20
62259;DHT22;48241;48.824;10.102;2023-04-25T06:05:43;11.90;87.00
62259;DHT22;48241;48.824;10.102;2023-04-25T06:08:10;11.30;86.80
62259;DHT22;48241;48.824;10.102;2023-04-25T06:10:39;11.50;86.80
62259;DHT22;48241;48.824;10.102;2023-04-25T06:13:04;11.30;86.40
62259;DHT22;48241;48.824;10.102;2023-04-25T06:15:30;12.00;87.30
62259;DHT22;48241;48.824;10.102;2023-04-25T06:17:57;12.00;87.00
62259;DHT22;48241;48.824;10.102;2023-04-25T06:20:23;12.30;87.00
62259;DHT22;48241;48.824;10.102;2023-04-25T06:22:50;12.50;87.90
62259;DHT22;48241;48.824;10.102;2023-04-25T06:25:17;12.30;87.80
62259;DHT22;48241;48.824;10.102;2023-04-25T06:27:42;11.40;87.00
62259;DHT22;48241;48.824;10.102;2023-04-25T06:30:08;12.00;86.70
62259;DHT22;48241;48.824;10.102;2023-04-25T06:32:35;11.50;85.50
62259;DHT22;48241;48.824;10.102;2023-04-25T06:35:00;12.60;86.90
62259;DHT22;48241;48.824;10.102;2023-04-25T06:37:26;12.50;86.50
62259;DHT22;48241;48.824;10.102;2023-04-25T06:39:52;12.30;85.60
62259;DHT22;48241;48.824;10.102;2023-04-25T06:42:17;12.70;83.40
62259;DHT22;48241;48.824;10.102;2023-04-25T06:44:43;13.00;82.80
62259;DHT22;48241;48.824;10.102;2023-04-25T06:47:09;13.10;80.50
62259;DHT22;48241;48.824;10.102;2023-04-25T06:49:34;13.10;80.10
62259;DHT22;48241;48.824;10.102;2023-04-25T06:52:00;12.80;80.50
62259;DHT22;48241;48.824;10.102;2023-04-25T06:54:26;12.40;81.70
62259;DHT22;48241;48.824;10.102;2023-04-25T06:56:54;13.00;82.30
62259;DHT22;48241;48.824;10.102;2023-04-25T06:59:19;13.00;81.60
62259;DHT22;48241;48.824;10.102;2023-04-25T07:01:45;13.60;78.80
62259;DHT22;48241;48.824;10.102;2023-04-25T07:04:11;13.70;77.30
62259;DHT22;48241;48.824;10.102;2023-04-25T07:06:36;13.80;77.30
62259;DHT22;48241;48.824;10.102;2023-04-25T07:09:10;14.60;76.90
62259;DHT22;48241;48.824;10.102;2023-04-25T07:11:36;13.70;75.60
62259;DHT22;48241;48.824;10.102;2023-04-25T07:14:02;13.50;77.60
62259;DHT22;48241;48.824;10.102;2023-04-25T07:16:28;13.20;77.90
62259;DHT22;48241;48.824;10.102;2023-04-25T07:18:53;13.40;78.10
62259;DHT22;48241;48.824;10.102;2023-04-25T07:21:19;13.30;77.90
62259;DHT22;48241;48.824;10.102;2023-04-25T07:23:45;13.40;78.00
62259;DHT22;48241;48.824;10.102;2023-04-25T07:26:10;13.70;77.70
62259;DHT22;48241;48.824;10.102;2023-04-25T07:28:36;12.70;78.60
62259;DHT22;48241;48.824;10.102;2023-04-25T07:31:01;12.90;77.30
62259;DHT22;48241;48.824;10.102;2023-04-25T07:33:28;12.90;77.60
62259;DHT22;48241;48.824;10.102;2023-04-25T07:35:53;12.90;78.00
62259;DHT22;48241;48.824;10.102;2023-04-25T07:38:20;12.20;78.80
62259;DHT22;48241;48.824;10.102;2023-04-25T07:40:46;12.20;79.80
62259;DHT22;48241;48.824;10.102;2023-04-25T07:43:12;12.10;81.10
62259;DHT22;48241;48.824;10.102;2023-04-25T07:45:40;12.00;80.30
62259;DHT22;48241;48.824;10.102;2023-04-25T07:48:05;12.80;79.90
62259;DHT22;48241;48.824;10.102;2023-04-25T07:50:31;13.00;79.70
62259;DHT22;48241;48.824;10.102;2023-04-25T07:52:57;12.70;78.80
62259;DHT22;48241;48.824;10.102;2023-04-25T07:55:22;12.50;77.80
62259;DHT22;48241;48.824;10.102;2023-04-25T07:57:48;12.70;77.30
62259;DHT22;48241;48.824;10.102;2023-04-25T08:00:14;13.00;77.30
62259;DHT22;48241;48.824;10.102;2023-04-25T08:02:40;12.50;76.50
62259;DHT22;48241;48.824;10.102;2023-04-25T08:05:06;12.30;77.50
62259;DHT22;48241;48.824;10.102;2023-04-25T08:07:33;12.10;78.60
62259;DHT22;48241;48.824;10.102;2023-04-25T08:10:00;12.20;79.20
62259;DHT22;48241;48.824;10.102;2023-04-25T08:12:25;12.10;79.40
62259;DHT22;48241;48.824;10.102;2023-04-25T08:14:51;12.40;79.40
62259;DHT22;48241;48.824;10.102;2023-04-25T08:17:17;12.30;79.10
62259;DHT22;48241;48.824;10.102;2023-04-25T08:19:46;13.00;79.60
62259;DHT22;48241;48.824;10.102;2023-04-25T08:22:11;12.50;79.00
62259;DHT22;48241;48.824;10.102;2023-04-25T08:24:38;13.00;79.00
62259;DHT22;48241;48.824;10.102;2023-04-25T08:27:06;13.20;80.00
62259;DHT22;48241;48.824;10.102;2023-04-25T08:29:33;12.40;78.40
62259;DHT22;48241;48.824;10.102;2023-04-25T08:32:00;13.40;79.80
62259;DHT22;48241;48.824;10.102;2023-04-25T08:34:26;13.20;79.20
62259;DHT22;48241;48.824;10.102;2023-04-25T08:36:52;13.20;79.20
62259;DHT22;48241;48.824;10.102;2023-04-25T08:39:18;13.20;80.10
62259;DHT22;48241;48.824;10.102;2023-04-25T08:41:44;13.40;81.10
62259;DHT22;48241;48.824;10.102;2023-04-25T08:44:13;12.70;81.30
62259;DHT22;48241;48.824;10.102;2023-04-25T08:46:40;13.00;81.90
62259;DHT22;48241;48.824;10.102;2023-04-25T08:49:07;13.10;81.80
62259;DHT22;48241;48.824;10.102;2023-04-25T08:51:46;12.90;81.70
62259;DHT22;48241;48.824;10.102;2023-04-25T08:54:13;12.00;80.20
62259;DHT22;48241;48.824;10.102;2023-04-25T08:56:41;13.80;79.60
62259;DHT22;48241;48.824;10.102;2023-04-25T08:59:09;12.00;77.90
62259;DHT22;48241;48.824;10.102;2023-04-25T09:01:35;12.20;79.00
62259;DHT22;48241;48.824;10.102;2023-04-25T09:04:08;12.50;79.90
62259;DHT22;48241;48.824;10.102;2023-04-25T09:06:34;12.40;78.80
62259;DHT22;48241;48.824;10.102;2023-04-25T09:09:05;12.40;80.70
62259;DHT22;48241;48.824;10.102;2023-04-25T09:11:31;13.00;79.00
62259;DHT22;48241;48.824;10.102;2023-04-25T09:14:17;12.70;78.30
62259;DHT22;48241;48.824;10.102;2023-04-25T09:19:31;13.20;78.70
62259;DHT22;48241;48.824;10.102;2023-04-25T09:21:58;13.30;77.10
62259;DHT22;48241;48.824;10.102;2023-04-25T09:24:34;13.50;77.60
62259;DHT22;48241;48.824;10.102;2023-04-25T09:27:03;13.30;75.30
62259;DHT22;48241;48.824;10.102;2023-04-25T09:29:33;14.30;75.90
62259;DHT22;48241;48.824;10.102;2023-04-25T09:32:21;14.30;74.80
62259;DHT22;48241;48.824;10.102;2023-04-25T09:34:56;14.20;72.60
62259;DHT22;48241;48.824;10.102;2023-04-25T09:37:28;14.80;73.50
62259;DHT22;48241;48.824;10.102;2023-04-25T09:39:58;14.40;72.00
62259;DHT22;48241;48.824;10.102;2023-04-25T09:42:30;14.40;72.70
62259;DHT22;48241;48.824;10.102;2023-04-25T09:44:58;14.30;70.10
62259;DHT22;48241;48.824;10.102;2023-04-25T09:51:12;14.30;68.50
62259;DHT22;48241;48.824;10.102;2023-04-25T09:53:43;14.40;68.00
62259;DHT22;48241;48.824;10.102;2023-04-25T09:56:12;15.00;69.90
62259;DHT22;48241;48.824;10.102;2023-04-25T09:58:39;14.40;69.40
62259;DHT22;48241;48.824;10.102;2023-04-25T10:01:12;14.80;67.20
62259;DHT22;48241;48.824;10.102;2023-04-25T10:03:41;15.00;66.80
62259;DHT22;48241;48.824;10.102;2023-04-25T10:06:12;15.40;67.60
62259;DHT22;48241;48.824;10.102;2023-04-25T10:08:40;15.20;68.50
62259;DHT22;48241;48.824;10.102;2023-04-25T10:11:10;15.80;67.80
62259;DHT22;48241;48.824;10.102;2023-04-25T10:13:36;15.90;67.10
62259;DHT22;48241;48.824;10.102;2023-04-25T10:19:09;16.90;61.70
62259;DHT22;48241;48.824;10.102;2023-04-25T10:21:46;17.50;61.80
62259;DHT22;48241;48.824;10.102;2023-04-25T10:24:14;17.70;59.90
62259;DHT22;48241;48.824;10.102;2023-04-25T10:26:41;18.00;57.70
62259;DHT22;48241;48.824;10.102;2023-04-25T10:29:07;18.80;56.50
62259;DHT22;48241;48.824;10.102;2023-04-25T10:31:47;18.20;57.40
62259;DHT22;48241;48.824;10.102;2023-04-25T10:34:13;17.50;57.30
62259;DHT22;48241;48.824;10.102;2023-04-25T10:36:39;17.30;57.50
62259;DHT22;48241;48.824;10.102;2023-04-25T10:39:05;16.40;59.00
62259;DHT22;48241;48.824;10.102;2023-04-25T10:41:48;15.60;61.20
62259;DHT22;48241;48.824;10.102;2023-04-25T10:44:17;15.70;61.50
62259;DHT22;48241;48.824;10.102;2023-04-25T10:46:44;15.70;61.40
62259;DHT22;48241;48.824;10.102;2023-04-25T10:49:28;14.80;62.20
62259;DHT22;48241;48.824;10.102;2023-04-25T10:52:11;14.90;64.40
62259;DHT22;48241;48.824;10.102;2023-04-25T10:54:42;15.10;63.90
62259;DHT22;48241;48.824;10.102;2023-04-25T10:57:07;15.60;64.00
62259;DHT22;48241;48.824;10.102;2023-04-25T10:59:33;15.60;63.60
62259;DHT22;48241;48.824;10.102;2023-04-25T11:01:59;15.20;65.30
62259;DHT22;48241;48.824;10.102;2023-04-25T11:04:33;15.40;65.90
62259;DHT22;48241;48.824;10.102;2023-04-25T11:07:05;15.80;66.00
62259;DHT22;48241;48.824;10.102;2023-04-25T11:09:34;15.50;64.20
62259;DHT22;48241;48.824;10.102;2023-04-25T11:12:00;16.10;63.60
62259;DHT22;48241;48.824;10.102;2023-04-25T11:14:26;16.60;62.00
62259;DHT22;48241;48.824;10.102;2023-04-25T11:16:59;17.10;62.70
62259;DHT22;48241;48.824;10.102;2023-04-25T11:19:26;17.30;59.50
62259;DHT22;48241;48.824;10.102;2023-04-25T11:21:59;17.60;60.00
62259;DHT22;48241;48.824;10.102;2023-04-25T11:24:28;18.20;57.50
62259;DHT22;48241;48.824;10.102;2023-04-25T11:26:54;17.80;58.10
62259;DHT22;48241;48.824;10.102;2023-04-25T11:29:27;17.70;57.70
62259;DHT22;48241;48.824;10.102;2023-04-25T11:31:54;17.60;56.40
62259;DHT22;48241;48.824;10.102;2023-04-25T11:34:22;18.00;55.60
62259;DHT22;48241;48.824;10.102;2023-04-25T11:36:48;17.90;55.70
62259;DHT22;48241;48.824;10.102;2023-04-25T11:39:13;17.50;56.10
62259;DHT22;48241;48.824;10.102;2023-04-25T11:41:41;17.90;56.90
62259;DHT22;48241;48.824;10.102;2023-04-25T11:44:07;17.50;56.30
62259;DHT22;48241;48.824;10.102;2023-04-25T11:46:35;17.70;57.00
62259;DHT22;48241;48.824;10.102;2023-04-25T11:49:01;17.70;58.90
62259;DHT22;48241;48.824;10.102;2023-04-25T11:51:27;17.70;58.70
62259;DHT22;48241;48.824;10.102;2023-04-25T11:53:53;17.40;59.40
62259;DHT22;48241;48.824;10.102;2023-04-25T11:56:18;17.40;61.50
62259;DHT22;48241;48.824;10.102;2023-04-25T12:01:35;16.70;63.60
62259;DHT22;48241;48.824;10.102;2023-04-25T12:04:18;16.10;65.40
62259;DHT22;48241;48.824;10.102;2023-04-25T12:06:46;15.00;68.00
62259;DHT22;48241;48.824;10.102;2023-04-25T12:09:14;14.60;69.60
62259;DHT22;48241;48.824;10.102;2023-04-25T12:11:54;14.30;70.80
62259;DHT22;48241;48.824;10.102;2023-04-25T12:14:25;14.30;71.40
62259;DHT22;48241;48.824;10.102;2023-04-25T12:16:52;14.10;70.40
62259;DHT22;48241;48.824;10.102;2023-04-25T12:19:19;14.10;70.90
62259;DHT22;48241;48.824;10.102;2023-04-25T12:21:45;13.50;71.60
62259;DHT22;48241;48.824;10.102;2023-04-25T12:24:17;13.40;71.70
62259;DHT22;48241;48.824;10.102;2023-04-25T12:26:58;13.00;74.60
62259;DHT22;48241;48.824;10.102;2023-04-25T12:29:25;12.70;74.80
62259;DHT22;48241;48.824;10.102;2023-04-25T12:31:55;12.80;74.60
62259;DHT22;48241;48.824;10.102;2023-04-25T12:34:22;11.70;77.70
62259;DHT22;48241;48.824;10.102;2023-04-25T12:36:48;11.30;80.40
62259;DHT22;48241;48.824;10.102;2023-04-25T12:39:18;11.30;81.40
62259;DHT22;48241;48.824;10.102;2023-04-25T12:41:51;11.30;82.80
62259;DHT22;48241;48.824;10.102;2023-04-25T12:44:19;11.30;81.40
62259;DHT22;48241;48.824;10.102;2023-04-25T12:46:45;11.90;80.80
62259;DHT22;48241;48.824;10.102;2023-04-25T12:49:11;11.60;81.00
62259;DHT22;48241;48.824;10.102;2023-04-25T12:51:37;11.90;80.00
62259;DHT22;48241;48.824;10.102;2023-04-25T12:54:04;11.70;79.20
62259;DHT22;48241;48.824;10.102;2023-04-25T12:56:30;11.40;79.20
62259;DHT22;48241;48.824;10.102;2023-04-25T12:58:56;11.90;78.30
62259;DHT22;48241;48.824;10.102;2023-04-25T13:01:23;12.00;79.40
62259;DHT22;48241;48.824;10.102;2023-04-25T13:03:49;12.50;80.80
62259;DHT22;48241;48.824;10.102;2023-04-25T13:06:15;12.10;80.00
62259;DHT22;48241;48.824;10.102;2023-04-25T13:08:41;12.60;80.70
62259;DHT22;48241;48.824;10.102;2023-04-25T13:11:07;13.10;78.60
62259;DHT22;48241;48.824;10.102;2023-04-25T13:13:33;13.60;77.10
62259;DHT22;48241;48.824;10.102;2023-04-25T13:16:01;14.00;76.40
62259;DHT22;48241;48.824;10.102;2023-04-25T13:18:30;13.70;73.50
62259;DHT22;48241;48.824;10.102;2023-04-25T13:20:56;14.00;74.70
62259;DHT22;48241;48.824;10.102;2023-04-25T13:23:22;14.00;74.70
62259;DHT22;48241;48.824;10.102;2023-04-25T13:25:48;14.10;74.20
62259;DHT22;48241;48.824;10.102;2023-04-25T13:28:13;14.10;75.00
62259;DHT22;48241;48.824;10.102;2023-04-25T13:30:40;14.80;76.20
62259;DHT22;48241;48.824;10.102;2023-04-25T13:33:05;14.50;76.70
62259;DHT22;48241;48.824;10.102;2023-04-25T13:35:33;14.50;74.10
62259;DHT22;48241;48.824;10.102;2023-04-25T13:37:59;14.40;72.90
62259;DHT22;48241;48.824;10.102;2023-04-25T13:40:25;14.30;73.90
62259;DHT22;48241;48.824;10.102;2023-04-25T13:42:52;14.40;73.30
62259;DHT22;48241;48.824;10.102;2023-04-25T13:45:18;14.00;74.70
62259;DHT22;48241;48.824;10.102;2023-04-25T13:47:43;13.80;73.20
62259;DHT22;48241;48.824;10.102;2023-04-25T13:50:09;13.80;74.70
62259;DHT22;48241;48.824;10.102;2023-04-25T13:52:35;13.50;76.60
62259;DHT22;48241;48.824;10.102;2023-04-25T13:55:01;13.40;76.90
62259;DHT22;48241;48.824;10.102;2023-04-25T13:57:30;13.10;77.30
62259;DHT22;48241;48.824;10.102;2023-04-25T13:59:55;13.40;78.90
62259;DHT22;48241;48.824;10.102;2023-04-25T14:02:21;13.80;78.80
62259;DHT22;48241;48.824;10.102;2023-04-25T14:04:46;13.90;76.90
62259;DHT22;48241;48.824;10.102;2023-04-25T14:07:13;14.20;76.80
62259;DHT22;48241;48.824;10.102;2023-04-25T14:09:41;14.40;75.40
62259;DHT22;48241;48.824;10.102;2023-04-25T14:12:07;14.60;76.10
62259;DHT22;48241;48.824;10.102;2023-04-25T14:14:32;15.00;75.10
62259;DHT22;48241;48.824;10.102;2023-04-25T14:16:58;14.70;73.60
62259;DHT22;48241;48.824;10.102;2023-04-25T14:19:24;14.90;74.90
62259;DHT22;48241;48.824;10.102;2023-04-25T14:21:49;14.10;77.50
62259;DHT22;48241;48.824;10.102;2023-04-25T14:24:15;14.00;76.60
62259;DHT22;48241;48.824;10.102;2023-04-25T14:26:41;12.90;74.50
62259;DHT22;48241;48.824;10.102;2023-04-25T14:29:08;11.60;78.60
62259;DHT22;48241;48.824;10.102;2023-04-25T14:31:34;12.30;83.50
62259;DHT22;48241;48.824;10.102;2023-04-25T14:34:00;11.50;84.00
62259;DHT22;48241;48.824;10.102;2023-04-25T14:36:27;11.90;86.40
62259;DHT22;48241;48.824;10.102;2023-04-25T14:38:53;11.80;86.60
62259;DHT22;48241;48.824;10.102;2023-04-25T14:41:18;10.40;87.30
62259;DHT22;48241;48.824;10.102;2023-04-25T14:43:44;10.60;88.30
62259;DHT22;48241;48.824;10.102;2023-04-25T14:46:10;10.70;88.90
62259;DHT22;48241;48.824;10.102;2023-04-25T14:48:36;12.00;89.80
62259;DHT22;48241;48.824;10.102;2023-04-25T14:51:02;11.00;88.10
62259;DHT22;48241;48.824;10.102;2023-04-25T14:53:28;10.90;89.60
62259;DHT22;48241;48.824;10.102;2023-04-25T14:55:53;10.90;86.90
62259;DHT22;48241;48.824;10.102;2023-04-25T14:58:19;12.10;88.60
62259;DHT22;48241;48.824;10.102;2023-04-25T15:00:45;12.10;88.70
62259;DHT22;48241;48.824;10.102;2023-04-25T15:03:11;11.70;89.20
62259;DHT22;48241;48.824;10.102;2023-04-25T15:05:41;11.70;88.60
62259;DHT22;48241;48.824;10.102;2023-04-25T15:08:07;11.00;87.30
62259;DHT22;48241;48.824;10.102;2023-04-25T15:10:32;12.00;88.70
62259;DHT22;48241;48.824;10.102;2023-04-25T15:12:58;11.30;90.20
62259;DHT22;48241;48.824;10.102;2023-04-25T15:15:23;11.80;90.70
62259;DHT22;48241;48.824;10.102;2023-04-25T15:17:49;11.90;90.90
62259;DHT22;48241;48.824;10.102;2023-04-25T15:20:16;10.80;90.70
62259;DHT22;48241;48.824;10.102;2023-04-25T15:22:43;11.80;91.50
62259;DHT22;48241;48.824;10.102;2023-04-25T15:25:09;11.00;92.10
62259;DHT22;48241;48.824;10.102;2023-04-25T15:27:37;10.60;92.80